Time;durP1;ratioP1;P1;durP2;ratioP2;P2;SDS_P1;SDS_P2;PMS_P1;PMS_P2;Temp;Humidity;BMP_temperature;BMP_pressure;BME280_temperature;BME280_humidity;BME280_pressure;Samples;Min_cycle;Max_cycle;Signal;HPM_P1;HPM_P2
2022/04/11 00:00:54;;;;;;;6.53;1.30;;;;;;;15.41;nan;100528.94;4892719;29;20448;-92
2022/04/11 00:03:34;;;;;;;16.53;2.30;;;;;;;15.38;nan;100512.06;4873880;29;20441;-92
2022/04/11 00:06:02;;;;;;;9.93;1.50;;;;;;;15.51;nan;100526.50;4888737;29;20463;-92
2022/04/11 00:08:36;;;;;;;8.60;1.23;;;;;;;15.63;nan;100534.84;4889129;29;20445;-91
2022/04/11 00:11:04;;;;;;;4.60;1.20;;;;;;;15.63;nan;100528.47;4844522;29;20448;-91
2022/04/11 00:13:32;;;;;;;6.60;1.53;;;;;;;15.69;nan;100528.41;4814327;29;20823;-91
2022/04/11 00:16:02;;;;;;;15.40;2.00;;;;;;;15.74;nan;100536.81;4814613;29;20471;-91
2022/04/11 00:18:58;;;;;;;5.03;1.50;;;;;;;15.79;nan;100534.19;4814308;29;20834;-92
2022/04/11 00:21:26;;;;;;;5.90;1.77;;;;;;;15.80;nan;100535.03;4828959;29;20444;-91
2022/04/11 00:24:12;;;;;;;6.93;1.90;;;;;;;15.85;nan;100537.94;4814208;29;20445;-91
2022/04/11 00:27:09;;;;;;;16.50;2.13;;;;;;;15.87;nan;100530.28;4814293;29;20732;-92
2022/04/11 00:29:38;;;;;;;5.43;1.30;;;;;;;15.87;nan;100531.09;4878028;29;20460;-92
2022/04/11 00:32:32;;;;;;;6.80;1.60;;;;;;;15.91;nan;100525.97;4889446;29;20452;-90
2022/04/11 00:35:07;;;;;;;12.10;1.37;;;;;;;15.94;nan;100527.44;4904658;29;20936;-90
2022/04/11 00:37:35;;;;;;;7.07;1.67;;;;;;;15.96;nan;100522.53;4903562;29;20456;-89
2022/04/11 00:40:05;;;;;;;6.77;1.80;;;;;;;15.96;nan;100512.34;4888216;29;20491;-89
2022/04/11 00:47:12;;;;;;;18.73;1.97;;;;;;;16.02;nan;100500.34;4920302;29;20445;-90
2022/04/11 00:49:40;;;;;;;15.27;2.43;;;;;;;16.03;nan;100492.91;4918834;29;20461;-90
2022/04/11 00:55:55;;;;;;;7.10;1.50;;;;;;;15.98;nan;100471.56;4921655;29;20449;-90
2022/04/11 00:58:25;;;;;;;8.07;1.83;;;;;;;16.05;nan;100482.50;4872586;29;20963;-91
2022/04/11 01:00:52;;;;;;;7.00;1.50;;;;;;;16.05;nan;100466.81;4887629;29;20487;-90
2022/04/11 01:03:21;;;;;;;5.43;1.50;;;;;;;16.12;nan;100474.97;4888206;29;20484;-91
2022/04/11 01:05:49;;;;;;;9.53;1.60;;;;;;;16.01;nan;100451.81;4888773;29;20448;-90
2022/04/11 01:08:25;;;;;;;9.10;1.30;;;;;;;16.11;nan;100465.03;4887997;29;20453;-90
2022/04/11 01:14:34;;;;;;;9.40;1.37;;;;;;;16.14;nan;100459.03;4919805;29;20840;-89
2022/04/11 01:17:05;;;;;;;7.00;1.23;;;;;;;16.15;nan;100461.56;4887665;29;20457;-89
2022/04/11 01:19:32;;;;;;;4.40;1.23;;;;;;;16.14;nan;100453.53;4886957;29;20493;-89
2022/04/11 01:22:00;;;;;;;7.07;1.07;;;;;;;16.15;nan;100441.41;4872380;29;20448;-88
2022/04/11 01:24:28;;;;;;;5.23;1.40;;;;;;;16.14;nan;100436.97;4872524;29;20512;-89
2022/04/11 01:26:56;;;;;;;10.10;1.70;;;;;;;16.15;nan;100449.69;4887327;29;20586;-89
2022/04/11 01:29:36;;;;;;;9.77;2.10;;;;;;;16.12;nan;100434.47;4887494;29;20449;-89
2022/04/11 01:32:37;;;;;;;8.10;1.87;;;;;;;16.20;nan;100447.03;4891646;29;20971;-89
2022/04/11 01:35:34;;;;;;;8.63;2.23;;;;;;;16.20;nan;100427.72;4903232;29;20445;-93
2022/04/11 01:38:02;;;;;;;6.83;1.37;;;;;;;16.15;nan;100425.72;4917554;29;20463;-89
2022/04/11 01:40:30;;;;;;;6.20;1.07;;;;;;;16.21;nan;100426.66;4886659;29;20488;-89
2022/04/11 01:43:04;;;;;;;8.07;1.47;;;;;;;16.14;nan;100409.41;4871813;29;20449;-89
2022/04/11 01:45:32;;;;;;;20.37;1.40;;;;;;;16.17;nan;100417.19;4827869;29;20448;-89
2022/04/11 01:48:00;;;;;;;14.93;1.80;;;;;;;16.21;nan;100421.16;4812578;29;20577;-89
2022/04/11 01:50:27;;;;;;;7.77;1.63;;;;;;;16.22;nan;100406.28;4842446;29;20449;-89
2022/04/11 01:53:04;;;;;;;7.33;1.50;;;;;;;16.23;nan;100407.97;4827873;29;20493;-91
2022/04/11 01:55:33;;;;;;;11.63;1.70;;;;;;;16.21;nan;100401.84;4827359;29;20448;-89
2022/04/11 01:58:04;;;;;;;7.23;1.47;;;;;;;16.21;nan;100391.66;4842206;29;21069;-89
2022/04/11 02:00:35;;;;;;;9.63;1.77;;;;;;;16.22;nan;100385.06;4842118;29;20632;-89
2022/04/11 02:03:06;;;;;;;14.03;1.80;;;;;;;16.21;nan;100379.78;4859537;29;20461;-89
2022/04/11 02:05:36;;;;;;;8.63;1.73;;;;;;;16.22;nan;100384.22;4886707;29;20455;-89
2022/04/11 02:08:10;;;;;;;13.60;1.87;;;;;;;16.27;nan;100378.84;4871886;29;20453;-91
2022/04/11 02:10:42;;;;;;;19.87;2.17;;;;;;;16.28;nan;100385.19;4871343;29;20459;-89
2022/04/11 02:13:10;;;;;;;7.43;1.30;;;;;;;16.28;nan;100369.47;4901760;29;20472;-90
2022/04/11 02:15:38;;;;;;;10.43;1.80;;;;;;;16.27;nan;100370.56;4886096;29;20536;-89
2022/04/11 02:18:08;;;;;;;10.87;1.97;;;;;;;16.23;nan;100356.41;4886154;29;20464;-89
2022/04/11 02:20:36;;;;;;;10.47;1.60;;;;;;;16.15;nan;100344.91;4871253;29;20487;-89
2022/04/11 02:23:04;;;;;;;25.80;2.00;;;;;;;16.28;nan;100363.97;4886097;29;20940;-90
2022/04/11 02:25:40;;;;;;;12.50;1.53;;;;;;;16.30;nan;100367.31;4886790;29;20445;-89
2022/04/11 02:31:51;;;;;;;9.20;1.50;;;;;;;16.31;nan;100354.38;4918325;29;20772;-89
2022/04/11 02:34:19;;;;;;;11.80;1.40;;;;;;;16.23;nan;100347.28;4871490;29;20441;-89
2022/04/11 02:36:56;;;;;;;11.47;1.93;;;;;;;16.30;nan;100353.53;4870981;29;20537;-89
2022/04/11 02:39:24;;;;;;;10.93;1.77;;;;;;;16.26;nan;100346.81;4870420;29;20480;-89
2022/04/11 02:42:02;;;;;;;13.57;1.83;;;;;;;16.31;nan;100348.84;4886333;29;20445;-89
2022/04/11 02:44:31;;;;;;;12.43;2.67;;;;;;;16.23;nan;100334.34;4901216;29;20457;-89
2022/04/11 02:47:01;;;;;;;13.67;1.50;;;;;;;16.31;nan;100348.84;4870417;29;20460;-89
2022/04/11 02:49:31;;;;;;;9.50;1.57;;;;;;;16.28;nan;100349.34;4845492;29;20452;-89
2022/04/11 02:52:22;;;;;;;8.73;1.70;;;;;;;16.28;nan;100343.81;4814539;29;20470;-91
2022/04/11 02:54:49;;;;;;;9.80;1.67;;;;;;;16.17;nan;100331.69;4843143;29;20863;-91
2022/04/11 02:57:20;;;;;;;16.03;1.60;;;;;;;16.23;nan;100350.06;4794986;29;20480;-91
2022/04/11 03:00:42;;;;;;;10.77;2.40;;;;;;;16.25;nan;100356.16;4794003;29;20492;-92
2022/04/11 03:03:21;;;;;;;8.67;2.20;;;;;;;16.24;nan;100351.72;4823704;29;20991;-89
2022/04/11 03:06:02;;;;;;;15.33;2.33;;;;;;;16.21;nan;100349.44;4793218;29;21017;-90
2022/04/11 03:08:42;;;;;;;8.10;1.80;;;;;;;16.20;nan;100342.25;4854679;29;20501;-90
2022/04/11 03:11:10;;;;;;;10.77;1.97;;;;;;;16.18;nan;100338.91;4870666;29;20512;-89
2022/04/11 03:13:41;;;;;;;9.13;1.80;;;;;;;16.20;nan;100342.25;4870572;29;20448;-89
2022/04/11 03:16:09;;;;;;;10.47;2.00;;;;;;;16.18;nan;100331.47;4885716;29;20608;-89
2022/04/11 03:18:39;;;;;;;15.73;2.13;;;;;;;16.15;nan;100325.63;4870574;29;20462;-91
2022/04/11 03:21:07;;;;;;;16.13;2.27;;;;;;;16.11;nan;100321.66;4870800;29;21033;-89
2022/04/11 03:23:49;;;;;;;14.67;2.40;;;;;;;16.16;nan;100324.53;4870465;29;20452;-91
2022/04/11 03:26:23;;;;;;;15.63;2.40;;;;;;;16.13;nan;100312.06;4870775;29;20460;-89
2022/04/11 03:28:51;;;;;;;15.53;2.87;;;;;;;16.13;nan;100302.97;4870565;29;20464;-89
2022/04/11 03:31:18;;;;;;;15.77;1.83;;;;;;;16.12;nan;100315.06;4870526;29;20441;-89
2022/04/11 03:33:46;;;;;;;19.47;3.00;;;;;;;16.16;nan;100302.47;4870492;29;20469;-90
2022/04/11 03:36:33;;;;;;;11.40;2.17;;;;;;;16.14;nan;100299.13;4875854;29;20964;-90
2022/04/11 03:39:01;;;;;;;13.47;1.90;;;;;;;16.11;nan;100291.31;4891713;29;20452;-89
2022/04/11 03:41:30;;;;;;;5.70;1.57;;;;;;;16.08;nan;100284.38;4835037;29;20495;-90
2022/04/11 03:44:12;;;;;;;10.70;1.83;;;;;;;16.07;nan;100281.84;4835696;29;20455;-90
2022/04/11 03:46:46;;;;;;;11.57;1.73;;;;;;;16.04;nan;100276.81;4835404;29;20466;-91
2022/04/11 03:49:38;;;;;;;15.30;2.37;;;;;;;16.11;nan;100288.56;4835798;29;20562;-90
2022/04/11 03:52:09;;;;;;;18.53;2.53;;;;;;;16.07;nan;100282.69;4850361;29;20439;-92
2022/04/11 03:54:43;;;;;;;14.07;2.63;;;;;;;16.10;nan;100292.41;4835233;29;20451;-90
2022/04/11 03:57:32;;;;;;;9.60;1.83;;;;;;;16.13;nan;100290.00;4835829;29;20450;-91
2022/04/11 04:00:00;;;;;;;10.30;1.70;;;;;;;16.10;nan;100281.38;4883239;29;20900;-90
2022/04/11 04:02:36;;;;;;;11.33;2.03;;;;;;;16.10;nan;100278.63;4872809;29;20949;-89
2022/04/11 04:05:04;;;;;;;15.00;2.07;;;;;;;16.11;nan;100263.75;4873538;29;20437;-90
2022/04/11 04:07:35;;;;;;;8.83;1.83;;;;;;;16.11;nan;100277.53;4873454;29;20796;-90
2022/04/11 04:10:04;;;;;;;10.87;2.20;;;;;;;16.10;nan;100281.38;4888874;29;20516;-90
2022/04/11 04:12:40;;;;;;;11.53;2.37;;;;;;;16.06;nan;100274.66;4888487;29;20497;-90
2022/04/11 04:15:08;;;;;;;12.93;1.93;;;;;;;16.11;nan;100283.91;4872541;29;20452;-91
2022/04/11 04:17:37;;;;;;;8.60;1.60;;;;;;;16.10;nan;100275.88;4872417;29;20814;-89
2022/04/11 04:20:06;;;;;;;4.00;1.50;;;;;;;16.00;nan;100270.09;4872223;29;21080;-89
2022/04/11 04:22:33;;;;;;;4.40;1.47;;;;;;;16.04;nan;100277.66;4872875;29;20446;-89
2022/04/11 04:25:03;;;;;;;6.60;1.43;;;;;;;16.03;nan;100275.13;4872731;29;20461;-89
2022/04/11 04:27:30;;;;;;;14.53;2.93;;;;;;;15.98;nan;100261.22;4872712;29;20457;-89
2022/04/11 04:29:58;;;;;;;10.37;2.33;;;;;;;16.01;nan;100280.91;4872348;29;20457;-90
2022/04/11 04:32:27;;;;;;;9.83;1.57;;;;;;;15.96;nan;100274.44;4872986;29;20437;-89
2022/04/11 04:34:55;;;;;;;16.63;2.17;;;;;;;15.93;nan;100263.91;4872691;29;20449;-89
2022/04/11 04:37:25;;;;;;;12.00;2.37;;;;;;;16.00;nan;100264.59;4887851;29;20468;-89
2022/04/11 04:39:55;;;;;;;10.60;2.20;;;;;;;15.99;nan;100258.25;4891014;29;20886;-89
2022/04/11 04:42:26;;;;;;;10.10;1.60;;;;;;;15.98;nan;100258.47;4921851;29;20453;-89
2022/04/11 04:44:54;;;;;;;7.90;1.57;;;;;;;15.94;nan;100254.56;4876575;29;20507;-89
2022/04/11 04:47:28;;;;;;;12.17;1.97;;;;;;;15.84;nan;100233.94;4888406;29;20449;-89
2022/04/11 04:49:58;;;;;;;14.20;2.40;;;;;;;15.87;nan;100260.19;4873654;29;20461;-91
2022/04/11 04:52:27;;;;;;;12.07;2.03;;;;;;;15.92;nan;100264.97;4888680;29;20452;-89
2022/04/11 04:54:55;;;;;;;11.27;1.60;;;;;;;15.82;nan;100252.63;4874272;29;20915;-90
2022/04/11 04:57:23;;;;;;;11.20;1.57;;;;;;;15.87;nan;100280.31;4884559;29;20456;-90
2022/04/11 04:59:50;;;;;;;9.73;1.80;;;;;;;15.76;nan;100264.63;4887868;29;20939;-90
2022/04/11 05:02:19;;;;;;;9.97;1.60;;;;;;;15.75;nan;100273.97;4904884;29;20449;-91
2022/04/11 05:04:52;;;;;;;6.13;1.30;;;;;;;15.72;nan;100279.94;4888144;29;20461;-90
2022/04/11 05:07:19;;;;;;;9.33;1.63;;;;;;;15.62;nan;100265.91;4887520;29;20460;-89
2022/04/11 05:09:48;;;;;;;7.47;1.17;;;;;;;15.62;nan;100296.22;4887828;29;20464;-89
2022/04/11 05:12:16;;;;;;;5.60;1.13;;;;;;;15.54;nan;100277.28;4887698;29;20448;-89
2022/04/11 05:14:56;;;;;;;5.33;1.37;;;;;;;15.52;nan;100283.03;4887412;29;20457;-89
2022/04/11 05:17:31;;;;;;;9.50;1.70;;;;;;;15.44;nan;100277.00;4903241;29;20803;-90
2022/04/11 05:20:05;;;;;;;4.43;1.33;;;;;;;15.44;nan;100272.34;4887931;29;20448;-90
2022/04/11 05:22:35;;;;;;;4.40;0.93;;;;;;;15.41;nan;100267.31;4902956;29;20453;-90
2022/04/11 05:25:06;;;;;;;5.10;0.90;;;;;;;15.32;nan;100265.16;4902508;29;20464;-90
2022/04/11 05:27:34;;;;;;;5.57;1.30;;;;;;;15.38;nan;100277.97;4903013;29;20437;-89
2022/04/11 05:30:14;;;;;;;7.60;1.37;;;;;;;15.39;nan;100275.00;4887608;29;20449;-90
2022/04/11 05:32:50;;;;;;;5.27;1.57;;;;;;;15.38;nan;100287.06;4903554;29;20456;-90
2022/04/11 05:35:19;;;;;;;6.60;1.70;;;;;;;15.35;nan;100272.94;4902469;29;20451;-90
2022/04/11 05:37:53;;;;;;;11.10;1.13;;;;;;;15.36;nan;100269.94;4887330;29;20535;-89
2022/04/11 05:40:22;;;;;;;4.87;1.70;;;;;;;15.32;nan;100245.88;4898821;29;20498;-90
2022/04/11 05:42:50;;;;;;;10.50;1.50;;;;;;;15.29;nan;100238.06;4899009;29;20517;-89
2022/04/11 05:45:20;;;;;;;7.87;1.23;;;;;;;15.33;nan;100253.91;4884059;29;20462;-89
2022/04/11 05:47:59;;;;;;;5.07;1.17;;;;;;;15.29;nan;100273.88;4884512;29;20444;-90
2022/04/11 05:50:33;;;;;;;7.33;1.50;;;;;;;15.25;nan;100256.97;4899309;29;20453;-89
2022/04/11 05:53:04;;;;;;;5.73;1.30;;;;;;;15.32;nan;100279.75;4884361;29;20454;-89
2022/04/11 05:55:41;;;;;;;8.43;1.33;;;;;;;15.33;nan;100280.59;4899321;29;20461;-89
2022/04/11 05:58:09;;;;;;;9.63;1.07;;;;;;;15.30;nan;100281.06;4898973;29;20493;-88
2022/04/11 06:00:38;;;;;;;8.03;2.20;;;;;;;15.33;nan;100288.84;4883436;29;20489;-90
2022/04/11 06:03:06;;;;;;;11.80;1.53;;;;;;;15.31;nan;100293.75;4883547;29;20794;-89
2022/04/11 06:05:41;;;;;;;8.83;1.63;;;;;;;15.28;nan;100295.06;4830664;29;20463;-89
2022/04/11 06:08:08;;;;;;;7.73;1.13;;;;;;;15.28;nan;100295.06;4845325;29;20440;-89
2022/04/11 06:10:38;;;;;;;7.70;1.60;;;;;;;15.28;nan;100300.56;4860213;29;20455;-89
2022/04/11 06:13:09;;;;;;;9.70;1.63;;;;;;;15.31;nan;100299.25;4845533;29;20814;-89
2022/04/11 06:15:36;;;;;;;6.77;1.73;;;;;;;15.34;nan;100315.31;4845214;29;20458;-89
2022/04/11 06:18:10;;;;;;;21.20;1.90;;;;;;;15.30;nan;100309.44;4860695;29;20459;-89
2022/04/11 06:20:39;;;;;;;7.03;1.67;;;;;;;15.25;nan;100312.03;4830377;29;20547;-89
2022/04/11 06:23:13;;;;;;;18.83;2.30;;;;;;;15.25;nan;100305.69;4854328;29;20464;-89
2022/04/11 06:25:42;;;;;;;15.93;1.90;;;;;;;15.27;nan;100293.38;4883254;29;20508;-90
2022/04/11 06:28:11;;;;;;;15.67;2.23;;;;;;;15.34;nan;100309.81;4882564;29;20520;-89
2022/04/11 06:30:39;;;;;;;10.93;2.23;;;;;;;15.34;nan;100318.06;4882918;29;20446;-90
2022/04/11 06:33:08;;;;;;;11.03;3.40;;;;;;;15.36;nan;100329.69;4914173;29;20465;-89
2022/04/11 06:35:37;;;;;;;20.37;6.77;;;;;;;15.31;nan;100311.13;4882957;29;20457;-91
2022/04/11 06:38:05;;;;;;;29.10;6.27;;;;;;;15.41;nan;100322.38;4898204;29;20460;-89
2022/04/11 06:40:33;;;;;;;11.20;4.27;;;;;;;15.41;nan;100324.28;4897836;29;20893;-89
2022/04/11 06:43:01;;;;;;;23.30;6.57;;;;;;;15.47;nan;100328.88;4883200;29;20465;-89
2022/04/11 06:49:15;;;;;;;62.47;39.20;;;;;;;15.46;nan;100310.66;4899447;29;20544;-90
2022/04/11 06:51:43;;;;;;;74.33;46.87;;;;;;;15.57;nan;100320.91;4882769;29;20449;-90
2022/04/11 06:54:11;;;;;;;65.87;37.97;;;;;;;15.53;nan;100306.72;4882662;29;20446;-90
2022/04/11 06:56:59;;;;;;;53.93;37.73;;;;;;;15.58;nan;100314.31;4883387;29;20441;-90
2022/04/11 06:59:28;;;;;;;37.73;22.97;;;;;;;15.55;nan;100303.75;4882495;29;20961;-89
2022/04/11 07:01:57;;;;;;;49.90;32.13;;;;;;;15.63;nan;100317.19;4882865;29;20485;-90
2022/04/11 07:04:40;;;;;;;40.53;24.63;;;;;;;15.73;nan;100317.47;4884371;29;20937;-90
2022/04/11 07:07:15;;;;;;;33.43;17.50;;;;;;;15.78;nan;100327.72;4867280;29;20458;-90
2022/04/11 07:09:46;;;;;;;26.70;13.53;;;;;;;15.78;nan;100328.56;4866896;29;20468;-90
2022/04/11 07:12:16;;;;;;;31.83;13.50;;;;;;;15.92;nan;100329.22;4882607;29;20461;-90
2022/04/11 07:14:54;;;;;;;27.80;11.30;;;;;;;15.93;nan;100319.03;4867482;29;20945;-90
2022/04/11 07:17:22;;;;;;;25.63;8.53;;;;;;;16.10;nan;100326.31;4867647;29;20517;-90
2022/04/11 07:19:49;;;;;;;30.60;7.63;;;;;;;16.15;nan;100333.88;4867253;29;20497;-90
2022/04/11 07:22:21;;;;;;;15.20;6.30;;;;;;;16.19;nan;100340.56;4867942;29;21072;-90
2022/04/11 07:24:50;;;;;;;29.73;8.73;;;;;;;16.24;nan;100325.00;4867391;29;20434;-90
2022/04/11 07:27:24;;;;;;;29.93;13.37;;;;;;;16.33;nan;100333.75;4866989;29;20457;-90
2022/04/11 07:30:00;;;;;;;31.33;14.00;;;;;;;16.41;nan;100327.84;4867169;29;20441;-90
2022/04/11 07:32:34;;;;;;;16.70;8.10;;;;;;;16.54;nan;100333.13;4868311;29;20996;-91
2022/04/11 07:35:03;;;;;;;21.00;5.70;;;;;;;16.57;nan;100335.38;4882414;29;20449;-91
2022/04/11 07:37:43;;;;;;;30.20;13.87;;;;;;;16.62;nan;100339.31;4867263;29;20805;-91
2022/04/11 07:40:13;;;;;;;23.63;9.87;;;;;;;16.61;nan;100343.16;4884712;29;20480;-91
2022/04/11 07:42:41;;;;;;;20.67;9.03;;;;;;;16.67;nan;100336.72;4869961;29;20488;-90
2022/04/11 07:45:09;;;;;;;24.07;8.53;;;;;;;16.61;nan;100329.38;4870619;29;20452;-90
2022/04/11 07:47:55;;;;;;;32.37;11.33;;;;;;;16.64;nan;100334.44;4870612;29;20433;-91
2022/04/11 07:50:23;;;;;;;22.30;9.13;;;;;;;16.71;nan;100335.16;4886116;29;20452;-90
2022/04/11 07:52:56;;;;;;;24.83;9.60;;;;;;;16.69;nan;100335.38;4872140;29;20449;-91
2022/04/11 07:55:26;;;;;;;15.53;6.57;;;;;;;16.70;nan;100339.00;4870737;29;20437;-90
2022/04/11 07:57:54;;;;;;;21.40;9.70;;;;;;;16.64;nan;100337.19;4870520;29;20460;-90
2022/04/11 08:00:22;;;;;;;16.80;5.30;;;;;;;16.66;nan;100346.91;4870003;29;20451;-90
2022/04/11 08:02:52;;;;;;;20.40;5.93;;;;;;;16.68;nan;100338.38;4869695;29;20480;-90
2022/04/11 08:05:26;;;;;;;25.63;6.20;;;;;;;16.76;nan;100336.06;4870165;29;20460;-91
2022/04/11 08:07:54;;;;;;;33.63;5.47;;;;;;;16.90;nan;100339.41;4885564;29;20488;-90
2022/04/11 08:10:30;;;;;;;28.07;6.97;;;;;;;16.99;nan;100357.25;4886571;29;20461;-91
2022/04/11 08:13:36;;;;;;;21.07;5.20;;;;;;;16.98;nan;100336.25;4869694;29;20452;-90
2022/04/11 08:20:04;;;;;;;27.10;7.57;;;;;;;16.93;nan;100341.69;4840784;29;20425;-90
2022/04/11 08:26:45;;;;;;;20.63;7.83;;;;;;;17.00;nan;100344.28;4807938;29;20427;-90
2022/04/11 08:30:06;;;;;;;14.97;4.07;;;;;;;17.09;nan;100351.94;4743103;30;20537;-90
2022/04/11 08:50:33;;;;;;;18.00;6.10;;;;;;;;;;4719208;30;20425;-91
2022/04/11 09:24:40;;;;;;;8.50;1.97;;;;;;;;;;4845047;29;20465;-94
2022/04/11 20:38:41;;;;;;;15.10;3.93;;;;;;;15.54;nan;100625.19;4916142;29;21460;-93
2022/04/11 21:14:12;;;;;;;;;;;;;;;;;;;;;
2022/04/11 21:25:39;;;;;;;15.80;3.80;;;;;;;14.80;nan;100650.06;4844381;29;20523;-93
2022/04/11 22:26:10;;;;;;;18.37;4.33;;;;;;;14.91;nan;100665.84;4770134;30;20427;-93
2022/04/11 22:41:51;;;;;;;;;;;;;;;;;;;;;
2022/04/11 22:45:14;;;;;;;;;;;;;;;;;;;;;
2022/04/11 22:48:36;;;;;;;18.87;3.27;;;;;;;14.74;nan;100649.06;4762176;30;20538;-93
2022/04/11 23:07:24;;;;;;;;;;;;;;;;;;;;;
2022/04/11 23:10:27;;;;;;;31.57;5.43;;;;;;;14.47;nan;100655.78;4710459;30;20586;-93
